Terminal Aerodrome Forecast
Issued by NWS Twin Cities, MN

Home | Current Version | Previous Version | Text Only | Print | Product List | Glossary On
Versions: 1 2 3 4 5 6 7 8 9 10 11 12 13 14
000
FTUS43 KMPX 202322
TAFEAU
TAF
KEAU 202322Z 2100/2124 23009KT P6SM SCT250
     FM210900 28014G22KT P6SM BKN050
     FM211300 31016G24KT P6SM OVC050
     FM212200 31014G20KT P6SM SKC=

USA.gov is the U.S. government's official web portal to all federal, state and local government web resources and services.